Time;durP1;ratioP1;P1;durP2;ratioP2;P2;SDS_P1;SDS_P2;PMS_P1;PMS_P2;Temp;Humidity;BMP_temperature;BMP_pressure;BME280_temperature;BME280_humidity;BME280_pressure;Samples;Min_cycle;Max_cycle;Signal;HPM_P1;HPM_P2
2021/12/04 00:02:29;;;;;;;8.40;4.90;;;;;;;1.87;100.00;99241.31;6096882;29;20063;-92
2021/12/04 00:05:31;;;;;;;7.35;4.80;;;;;;;1.87;100.00;99226.00;6102100;29;20052;-92
2021/12/04 00:08:35;;;;;;;7.13;5.28;;;;;;;1.87;100.00;99226.81;6094700;29;20048;-92
2021/12/04 00:11:41;;;;;;;9.60;5.53;;;;;;;1.83;100.00;99222.00;6102321;29;20056;-92
2021/12/04 00:14:56;;;;;;;7.75;5.20;;;;;;;1.82;100.00;99221.19;6104993;29;20053;-92
2021/12/04 00:18:00;;;;;;;6.65;4.68;;;;;;;1.87;100.00;99218.34;6105253;29;20064;-92
2021/12/04 00:21:02;;;;;;;8.10;5.50;;;;;;;1.94;100.00;99222.94;6106054;29;20088;-92
2021/12/04 00:24:04;;;;;;;8.02;5.43;;;;;;;1.91;100.00;99225.72;6090937;29;20088;-92
2021/12/04 00:27:07;;;;;;;9.88;5.75;;;;;;;1.90;100.00;99220.69;6095015;29;20037;-92
2021/12/04 00:30:10;;;;;;;9.07;5.72;;;;;;;1.94;100.00;99217.84;6095811;29;20036;-92
2021/12/04 00:33:19;;;;;;;9.07;5.78;;;;;;;1.95;100.00;99216.09;6099924;29;20072;-92
2021/12/04 00:49:06;;;;;;;9.05;5.88;;;;;;;1.93;100.00;99205.19;6097109;29;20044;-92
2021/12/04 00:49:33;;;;;;;7.43;5.40;;;;;;;1.94;100.00;99197.44;6095370;29;20043;-92
2021/12/04 00:52:34;;;;;;;6.72;5.25;;;;;;;1.92;100.00;99199.25;6107732;29;20044;-92
2021/12/04 00:55:37;;;;;;;10.65;5.75;;;;;;;1.93;100.00;99195.78;6093799;29;20061;-92
2021/12/04 00:58:39;;;;;;;7.25;5.63;;;;;;;1.96;100.00;99189.66;6095168;29;20073;-92
2021/12/04 01:01:43;;;;;;;8.27;6.10;;;;;;;1.94;100.00;99187.22;6099752;29;20064;-92
2021/12/04 01:04:46;;;;;;;7.45;5.60;;;;;;;1.92;100.00;99183.16;6096212;29;20040;-92
2021/12/04 01:07:48;;;;;;;8.15;5.60;;;;;;;1.93;100.00;99177.09;6096229;29;20136;-92
2021/12/04 01:10:50;;;;;;;9.02;5.43;;;;;;;1.90;100.00;99175.56;6097037;29;20378;-92
2021/12/04 01:13:55;;;;;;;7.57;5.93;;;;;;;1.91;100.00;99184.03;6095998;29;20505;-92
2021/12/04 01:16:59;;;;;;;8.65;5.50;;;;;;;1.90;100.00;99179.88;6094441;29;20040;-92
2021/12/04 01:20:01;;;;;;;10.20;5.53;;;;;;;1.97;100.00;99173.44;6096292;29;20056;-92
2021/12/04 01:23:17;;;;;;;5.95;4.97;;;;;;;1.94;100.00;99177.03;6093566;29;20044;-92
2021/12/04 01:26:20;;;;;;;7.53;4.85;;;;;;;1.96;100.00;99176.09;6078089;29;20056;-92
2021/12/04 01:29:22;;;;;;;6.40;4.68;;;;;;;1.99;100.00;99181.81;6091147;29;20037;-92
2021/12/04 01:32:25;;;;;;;6.50;5.00;;;;;;;2.00;100.00;99173.25;6097573;29;20037;-92
2021/12/04 01:35:27;;;;;;;6.20;4.78;;;;;;;1.97;100.00;99165.78;6096238;29;20049;-92
2021/12/04 01:38:29;;;;;;;6.82;5.10;;;;;;;2.01;100.00;99158.75;6096588;29;20053;-92
2021/12/04 01:41:35;;;;;;;7.78;4.97;;;;;;;2.00;100.00;99157.94;6097075;29;20052;-92
2021/12/04 01:44:37;;;;;;;9.18;5.47;;;;;;;2.04;100.00;99156.81;6095893;29;20127;-92
2021/12/04 01:47:39;;;;;;;7.53;5.10;;;;;;;2.07;100.00;99153.25;6091851;29;20116;-92
2021/12/04 01:50:42;;;;;;;8.32;5.07;;;;;;;2.04;100.00;99145.81;6095189;29;20582;-92
2021/12/04 01:53:44;;;;;;;7.68;5.72;;;;;;;2.00;100.00;99146.91;6098482;29;20028;-92
2021/12/04 01:56:46;;;;;;;10.52;6.03;;;;;;;2.05;100.00;99139.78;6096789;29;20410;-92
2021/12/04 01:59:49;;;;;;;6.13;5.15;;;;;;;2.03;100.00;99146.72;6098674;29;20049;-92
2021/12/04 02:02:52;;;;;;;8.57;5.35;;;;;;;2.04;100.00;99138.16;6094179;29;20048;-92
2021/12/04 02:05:54;;;;;;;9.43;5.20;;;;;;;2.01;100.00;99149.34;6088542;29;20080;-92
2021/12/04 02:08:56;;;;;;;7.05;5.28;;;;;;;2.02;100.00;99145.09;6093842;29;20040;-92
2021/12/04 02:11:58;;;;;;;8.02;5.50;;;;;;;2.10;100.00;99150.50;6092484;29;20044;-92
2021/12/04 02:15:02;;;;;;;6.65;5.10;;;;;;;2.03;100.00;99144.16;6095258;29;20059;-92
2021/12/04 02:18:06;;;;;;;6.47;5.25;;;;;;;2.02;100.00;99139.97;6095772;29;20040;-92
2021/12/04 02:21:09;;;;;;;7.55;5.18;;;;;;;2.01;100.00;99141.69;6092965;29;20045;-92
2021/12/04 02:24:11;;;;;;;7.25;5.53;;;;;;;2.00;100.00;99136.72;6096317;29;20048;-92
2021/12/04 02:27:13;;;;;;;7.63;5.30;;;;;;;2.07;100.00;99133.66;6090705;29;20460;-92
2021/12/04 02:30:25;;;;;;;8.30;5.82;;;;;;;2.12;100.00;99125.69;6094677;29;20052;-92
2021/12/04 02:33:27;;;;;;;10.65;6.35;;;;;;;2.03;100.00;99122.00;6099932;29;20045;-92
2021/12/04 02:36:30;;;;;;;7.00;5.60;;;;;;;2.04;100.00;99131.31;6093669;29;20060;-92
2021/12/04 02:39:35;;;;;;;6.85;5.32;;;;;;;2.04;100.00;99118.53;6090838;29;20053;-92
2021/12/04 02:42:37;;;;;;;8.48;6.15;;;;;;;2.04;100.00;99116.00;6089653;29;20049;-92
2021/12/04 02:45:42;;;;;;;8.27;5.65;;;;;;;2.03;100.00;99106.69;6088111;29;20100;-92
2021/12/04 02:48:46;;;;;;;7.35;5.63;;;;;;;2.07;100.00;99104.75;6096710;29;20076;-92
2021/12/04 02:51:48;;;;;;;7.30;5.60;;;;;;;2.05;100.00;99097.19;6091917;29;20033;-92
2021/12/04 02:54:51;;;;;;;7.07;5.43;;;;;;;2.04;100.00;99103.22;6100037;29;20052;-92
2021/12/04 02:57:53;;;;;;;9.35;5.18;;;;;;;2.03;100.00;99091.38;6093509;29;20064;-92
2021/12/04 03:00:55;;;;;;;7.70;5.40;;;;;;;2.07;100.00;99092.00;6095399;29;20056;-92
2021/12/04 03:04:05;;;;;;;8.90;5.88;;;;;;;2.04;100.00;99084.56;6089523;29;20041;-92
2021/12/04 03:07:08;;;;;;;8.77;5.80;;;;;;;2.09;100.00;99085.06;6089394;29;20040;-92
2021/12/04 03:10:10;;;;;;;8.65;5.57;;;;;;;2.07;100.00;99084.34;6091874;29;20041;-92
2021/12/04 03:13:14;;;;;;;7.88;5.13;;;;;;;2.06;100.00;99080.13;6092150;29;20040;-92
2021/12/04 03:16:16;;;;;;;7.03;5.45;;;;;;;2.06;100.00;99075.88;6093778;29;20063;-92
2021/12/04 03:19:18;;;;;;;8.82;5.30;;;;;;;2.07;100.00;99072.41;6084476;29;20055;-92
2021/12/04 03:22:27;;;;;;;8.38;5.78;;;;;;;2.09;100.00;99070.56;6067543;29;20096;-92
2021/12/04 03:25:29;;;;;;;8.10;5.47;;;;;;;2.04;100.00;99062.41;6093186;29;20064;-92
2021/12/04 03:28:31;;;;;;;8.52;5.32;;;;;;;2.05;100.00;99053.81;6091102;29;20657;-92
2021/12/04 03:41:20;;;;;;;7.68;5.30;;;;;;;2.05;100.00;99033.41;6088276;29;20064;-92
2021/12/04 03:44:22;;;;;;;7.20;5.43;;;;;;;2.07;100.00;99033.31;6095425;29;20079;-92
2021/12/04 03:47:24;;;;;;;6.07;4.97;;;;;;;2.05;100.00;99027.47;6091728;29;20041;-92
2021/12/04 03:50:26;;;;;;;8.48;5.22;;;;;;;2.09;100.00;99031.47;6092149;29;20041;-92
2021/12/04 03:53:28;;;;;;;5.70;4.20;;;;;;;2.10;100.00;99031.34;6090651;29;20547;-92
2021/12/04 03:56:44;;;;;;;7.53;5.15;;;;;;;2.13;100.00;99031.13;6085686;29;20646;-92
2021/12/04 03:59:48;;;;;;;7.75;4.70;;;;;;;2.10;100.00;99033.09;6092483;29;20135;-92
2021/12/04 04:02:50;;;;;;;6.93;5.07;;;;;;;2.07;100.00;99029.00;6093711;29;20048;-92
2021/12/04 04:05:54;;;;;;;5.85;4.60;;;;;;;2.04;100.00;99023.31;6091340;29;20081;-92
2021/12/04 04:08:56;;;;;;;8.25;4.75;;;;;;;2.07;100.00;99010.34;6091891;29;20040;-92
2021/12/04 04:11:58;;;;;;;6.00;4.68;;;;;;;2.08;100.00;99007.66;6091880;29;20052;-92
2021/12/04 04:15:00;;;;;;;5.95;5.00;;;;;;;2.08;100.00;98997.44;6091739;29;20048;-92
2021/12/04 04:18:02;;;;;;;7.30;4.75;;;;;;;2.08;100.00;99006.84;6089416;29;20060;-92
2021/12/04 04:21:05;;;;;;;6.18;4.75;;;;;;;2.09;100.00;99008.50;6090235;29;20590;-92
2021/12/04 04:24:21;;;;;;;7.80;5.25;;;;;;;2.05;100.00;99007.06;6091996;29;20040;-92
2021/12/04 04:27:24;;;;;;;7.47;4.93;;;;;;;2.07;100.00;99005.22;6093768;29;20036;-92
2021/12/04 04:30:26;;;;;;;6.28;4.38;;;;;;;2.07;100.00;99010.34;6090501;29;20100;-92
2021/12/04 04:33:34;;;;;;;7.57;5.07;;;;;;;2.07;100.00;98997.56;6077318;29;20057;-92
2021/12/04 05:13:17;;;;;;;7.20;4.50;;;;;;;2.04;100.00;98985.03;6089654;29;19935;-92
2021/12/04 05:16:28;;;;;;;7.03;4.75;;;;;;;2.06;100.00;98976.34;6090235;29;20053;-92
2021/12/04 05:19:52;;;;;;;5.72;5.13;;;;;;;2.04;100.00;98979.94;6084795;29;20066;-92
2021/12/04 05:22:55;;;;;;;6.10;4.70;;;;;;;1.97;100.00;98976.97;6077638;29;20052;-91
2021/12/04 05:25:57;;;;;;;7.03;5.00;;;;;;;1.88;100.00;98973.28;6080182;29;20056;-92
2021/12/04 05:29:00;;;;;;;6.32;5.07;;;;;;;1.86;100.00;98981.97;6078892;29;20096;-91
2021/12/04 05:32:05;;;;;;;6.88;5.43;;;;;;;1.82;100.00;98971.19;6077395;29;20052;-91
2021/12/04 05:35:07;;;;;;;7.43;5.03;;;;;;;1.75;100.00;98967.41;6078110;29;20041;-91
2021/12/04 05:38:09;;;;;;;6.50;4.97;;;;;;;1.73;100.00;98956.50;6077889;29;20065;-92
2021/12/04 05:41:12;;;;;;;8.20;6.00;;;;;;;1.76;100.00;98966.47;6081000;29;20056;-91
2021/12/04 05:44:17;;;;;;;8.55;5.28;;;;;;;1.76;100.00;98965.66;6066925;29;20562;-91
2021/12/04 05:47:24;;;;;;;6.68;5.30;;;;;;;1.77;100.00;98957.91;6080513;29;20052;-91
2021/12/04 05:53:57;;;;;;;8.02;5.28;;;;;;;1.78;100.00;98958.72;6078624;29;20070;-91
2021/12/04 05:57:00;;;;;;;7.82;5.38;;;;;;;1.77;100.00;98965.56;6089736;29;20048;-91
2021/12/04 06:00:06;;;;;;;8.02;5.90;;;;;;;1.77;100.00;98963.03;6074470;29;20045;-91
2021/12/04 06:03:08;;;;;;;8.70;5.63;;;;;;;1.83;100.00;98969.44;6059515;29;20164;-91
2021/12/04 06:06:11;;;;;;;7.90;5.68;;;;;;;1.85;100.00;98970.97;6078400;29;20132;-91
2021/12/04 06:09:14;;;;;;;7.35;5.18;;;;;;;1.88;100.00;98975.03;6069232;29;20055;-91
2021/12/04 06:12:16;;;;;;;10.15;5.93;;;;;;;1.87;100.00;98974.22;6076226;29;20044;-92
2021/12/04 06:15:18;;;;;;;8.02;5.70;;;;;;;1.91;100.00;98988.41;6077168;29;20506;-92
2021/12/04 06:18:21;;;;;;;7.78;5.90;;;;;;;1.92;100.00;98984.13;6067396;29;20487;-91
2021/12/04 06:24:45;;;;;;;8.07;6.13;;;;;;;1.98;100.00;98991.34;6081484;29;20051;-91
2021/12/04 06:27:48;;;;;;;6.57;5.25;;;;;;;1.99;100.00;98992.16;6082859;29;20513;-92
2021/12/04 06:30:52;;;;;;;7.22;5.65;;;;;;;1.99;100.00;98995.56;6076645;29;20119;-92
2021/12/04 06:34:00;;;;;;;9.57;5.78;;;;;;;2.00;100.00;98999.72;6084885;29;20604;-92
2021/12/04 06:37:03;;;;;;;7.50;5.60;;;;;;;2.01;100.00;99003.88;6095094;29;20052;-91
2021/12/04 06:40:08;;;;;;;8.88;5.63;;;;;;;2.01;100.00;99003.09;6073782;29;20084;-92
2021/12/04 06:43:10;;;;;;;9.93;6.13;;;;;;;2.01;100.00;98998.78;6057858;29;20057;-92
2021/12/04 06:46:27;;;;;;;9.20;6.32;;;;;;;2.01;100.00;98993.69;6072898;29;20056;-91
2021/12/04 06:49:36;;;;;;;7.57;5.78;;;;;;;2.02;100.00;98986.88;6070949;29;20120;-91
2021/12/04 06:52:43;;;;;;;9.35;7.05;;;;;;;2.04;100.00;98995.25;6080626;29;20048;-91
2021/12/04 06:55:48;;;;;;;8.57;6.30;;;;;;;2.02;100.00;98990.22;6060692;29;20079;-92
2021/12/04 06:58:52;;;;;;;7.00;5.57;;;;;;;2.00;100.00;98989.50;6055840;29;20558;-91
2021/12/04 07:01:54;;;;;;;10.00;6.50;;;;;;;1.99;100.00;98981.94;6070536;29;20056;-91
2021/12/04 07:04:57;;;;;;;9.60;6.38;;;;;;;1.97;100.00;98987.19;6080465;29;20040;-91
2021/12/04 07:07:59;;;;;;;9.43;6.15;;;;;;;2.02;100.00;98997.06;6074949;29;20058;-91
2021/12/04 07:11:04;;;;;;;9.93;7.05;;;;;;;1.99;100.00;98989.59;6073625;29;20057;-91
2021/12/04 07:14:07;;;;;;;10.20;6.60;;;;;;;2.04;100.00;98985.03;6066556;29;20106;-91
2021/12/04 07:17:09;;;;;;;11.63;7.97;;;;;;;1.99;100.00;98989.59;6070591;29;20053;-91
2021/12/04 07:20:12;;;;;;;10.35;6.63;;;;;;;2.00;100.00;98993.81;6074951;29;20045;-91
2021/12/04 07:23:14;;;;;;;9.55;6.63;;;;;;;2.02;100.00;98999.63;6072449;29;20052;-91
2021/12/04 07:26:18;;;;;;;9.20;6.65;;;;;;;2.01;100.00;98996.22;6062279;29;20041;-90
2021/12/04 07:29:20;;;;;;;11.90;7.45;;;;;;;2.06;100.00;98988.28;6074055;29;20189;-91
2021/12/04 07:32:25;;;;;;;9.20;6.70;;;;;;;2.09;100.00;98988.09;6062179;29;20414;-90
2021/12/04 07:35:27;;;;;;;9.32;6.60;;;;;;;2.10;100.00;98985.41;6059954;29;20049;-90
2021/12/04 07:38:29;;;;;;;13.10;7.63;;;;;;;2.08;100.00;98983.88;6057479;29;20482;-90
2021/12/04 07:41:37;;;;;;;10.60;7.20;;;;;;;2.08;100.00;98987.25;6065512;29;20173;-91
2021/12/04 07:44:40;;;;;;;9.95;6.85;;;;;;;2.11;100.00;98991.31;6064150;29;20044;-90
2021/12/04 07:47:42;;;;;;;10.57;7.65;;;;;;;2.12;100.00;98985.31;6063691;29;20450;-91
2021/12/04 07:50:44;;;;;;;12.30;7.28;;;;;;;2.14;100.00;98989.38;6062807;29;20876;-91
2021/12/04 07:53:47;;;;;;;10.52;7.28;;;;;;;2.18;100.00;98992.53;6061353;29;20049;-90
2021/12/04 07:56:49;;;;;;;12.15;7.75;;;;;;;2.21;100.00;98992.34;6058512;29;20052;-91
2021/12/04 07:59:52;;;;;;;10.27;7.07;;;;;;;2.23;100.00;98992.22;6066213;29;20045;-91
2021/12/04 08:02:54;;;;;;;10.65;7.22;;;;;;;2.29;100.00;98987.50;6069852;29;20044;-91
2021/12/04 08:05:56;;;;;;;11.00;6.97;;;;;;;2.37;100.00;98986.97;6076131;29;20543;-90
2021/12/04 08:08:59;;;;;;;10.15;7.28;;;;;;;2.40;100.00;98991.06;6075052;29;20059;-91
2021/12/04 08:12:05;;;;;;;11.40;7.72;;;;;;;2.40;100.00;98991.06;6070119;29;20060;-91
2021/12/04 08:15:09;;;;;;;10.25;7.22;;;;;;;2.38;100.00;98991.16;6077738;29;20411;-91
2021/12/04 08:18:11;;;;;;;9.45;7.20;;;;;;;2.42;100.00;98987.47;6062463;29;20052;-91
2021/12/04 08:21:13;;;;;;;11.68;7.20;;;;;;;2.40;100.00;98986.75;6069284;29;20060;-91
2021/12/04 08:24:15;;;;;;;9.55;7.15;;;;;;;2.45;100.00;98994.09;6076879;29;20104;-91
2021/12/04 08:27:19;;;;;;;9.48;7.07;;;;;;;2.47;100.00;98999.91;6045905;29;20099;-90
2021/12/04 08:30:25;;;;;;;10.25;7.30;;;;;;;2.52;100.00;98995.31;6074420;29;20159;-90
2021/12/04 08:33:26;;;;;;;10.38;7.30;;;;;;;2.57;100.00;98996.59;6074812;29;20414;-90
2021/12/04 08:36:32;;;;;;;11.43;7.28;;;;;;;2.52;100.00;98991.00;6070431;29;20044;-90
2021/12/04 08:39:34;;;;;;;9.45;6.90;;;;;;;2.54;100.00;98994.28;6062053;29;20060;-90
2021/12/04 08:42:38;;;;;;;10.77;7.18;;;;;;;2.52;100.00;98996.09;6071805;29;20164;-90
2021/12/04 08:45:42;;;;;;;10.25;7.00;;;;;;;2.56;100.00;98983.97;6056874;29;20052;-90
2021/12/04 08:48:44;;;;;;;11.50;7.82;;;;;;;2.65;100.00;98985.84;6060972;29;20048;-90
2021/12/04 08:51:46;;;;;;;12.25;7.80;;;;;;;2.74;100.00;98992.03;6061800;29;20429;-90
2021/12/04 08:54:48;;;;;;;12.00;7.47;;;;;;;2.84;100.00;98990.47;6064259;29;20033;-90
2021/12/04 08:57:51;;;;;;;10.55;7.25;;;;;;;2.95;100.00;98987.94;6049920;29;20048;-90
2021/12/04 09:01:01;;;;;;;10.93;7.32;;;;;;;3.06;100.00;98988.91;6057647;29;20045;-90
2021/12/04 09:04:14;;;;;;;12.95;7.95;;;;;;;3.10;100.00;98980.91;6065477;29;20049;-90
2021/12/04 09:07:18;;;;;;;10.93;7.32;;;;;;;3.16;100.00;98984.75;6066893;29;20045;-90
2021/12/04 09:10:21;;;;;;;13.05;8.43;;;;;;;3.25;100.00;98989.19;6068141;29;20786;-90
2021/12/04 09:13:25;;;;;;;10.05;6.97;;;;;;;3.38;100.00;98987.38;6061132;29;20049;-90
2021/12/04 09:16:28;;;;;;;11.07;7.32;;;;;;;3.47;100.00;98975.63;6063677;29;20083;-90
2021/12/04 09:19:31;;;;;;;11.82;8.43;;;;;;;3.57;100.00;98970.66;6056133;29;20418;-90
2021/12/04 09:22:35;;;;;;;11.95;7.95;;;;;;;3.68;100.00;98975.78;6066070;29;20107;-90
2021/12/04 09:25:41;;;;;;;11.73;7.63;;;;;;;3.76;100.00;98968.31;6056084;29;20055;-90
2021/12/04 09:36:03;;;;;;;11.02;7.22;;;;;;;4.08;100.00;98977.88;6057756;29;20491;-90
2021/12/04 10:35:22;;;;;;;7.80;5.45;;;;;;;5.16;100.00;98909.41;6050959;29;20049;-91
2021/12/04 10:38:26;;;;;;;7.85;5.85;;;;;;;5.06;100.00;98900.03;6054217;29;20045;-91
2021/12/04 10:41:45;;;;;;;9.88;6.57;;;;;;;5.08;100.00;98898.16;6052883;29;20051;-91
2021/12/04 10:44:51;;;;;;;10.55;6.45;;;;;;;5.01;100.00;98894.47;6058672;29;20658;-90
2021/12/04 10:47:56;;;;;;;8.52;6.57;;;;;;;4.99;100.00;98884.34;6064208;29;20378;-91
2021/12/04 10:51:31;;;;;;;8.68;6.78;;;;;;;4.96;100.00;98885.41;6063753;29;20040;-91
2021/12/04 10:54:31;;;;;;;9.35;6.20;;;;;;;4.87;100.00;98887.91;6059406;29;20044;-91
2021/12/04 11:18:38;;;;;;;9.68;6.47;;;;;;;4.85;100.00;98864.97;6059955;29;20048;-91
2021/12/04 11:41:36;;;;;;;7.03;5.50;;;;;;;5.13;100.00;98803.72;6060507;29;20143;-91
2021/12/04 11:44:55;;;;;;;8.60;5.53;;;;;;;5.26;100.00;98798.34;6060263;29;20044;-91
2021/12/04 11:48:03;;;;;;;7.90;5.70;;;;;;;5.23;100.00;98791.72;6059647;29;20040;-91
2021/12/04 11:51:21;;;;;;;6.00;5.07;;;;;;;5.32;100.00;98790.16;6060146;29;20056;-91
2021/12/04 11:54:49;;;;;;;7.43;5.32;;;;;;;5.41;100.00;98791.91;6056561;29;20180;-91
2021/12/04 11:57:51;;;;;;;6.57;5.00;;;;;;;5.42;100.00;98785.84;6060496;29;20723;-91
2021/12/04 12:01:40;;;;;;;6.47;4.80;;;;;;;5.44;100.00;98783.13;6070123;29;20354;-91
2021/12/04 12:04:56;;;;;;;6.95;4.70;;;;;;;5.49;100.00;98778.41;6053485;29;20067;-91
2021/12/04 12:07:58;;;;;;;4.65;3.80;;;;;;;5.46;100.00;98776.94;6053232;29;20062;-91
2021/12/04 12:11:34;;;;;;;5.65;4.68;;;;;;;5.38;100.00;98772.47;6069982;29;20060;-91
2021/12/04 12:14:56;;;;;;;4.53;3.55;;;;;;;5.25;100.00;98761.63;6073510;29;20463;-91
2021/12/04 12:18:16;;;;;;;4.78;3.88;;;;;;;5.09;100.00;98758.75;6058419;29;20075;-91
2021/12/04 12:21:25;;;;;;;5.05;3.75;;;;;;;5.07;100.00;98755.47;6061333;29;20143;-91
2021/12/04 12:37:53;;;;;;;5.03;3.47;;;;;;;4.84;100.00;98708.72;6060909;29;20052;-91
2021/12/04 12:41:23;;;;;;;6.45;3.63;;;;;;;4.94;100.00;98707.84;6064718;29;20056;-91
2021/12/04 12:44:29;;;;;;;5.82;4.25;;;;;;;5.12;100.00;98720.03;6062259;29;20053;-91
2021/12/04 12:47:50;;;;;;;6.18;4.13;;;;;;;5.10;100.00;98721.91;6057730;29;20055;-91
2021/12/04 12:50:53;;;;;;;5.23;4.67;;;;;;;5.07;100.00;98717.84;6067402;29;20143;-91
2021/12/04 12:53:58;;;;;;;6.18;4.53;;;;;;;4.97;100.00;98719.59;6061580;29;20067;-91
2021/12/04 12:57:17;;;;;;;5.30;3.97;;;;;;;4.82;100.00;98720.84;6070919;29;20052;-91
2021/12/04 13:14:29;;;;;;;5.85;3.83;;;;;;;4.30;100.00;98690.16;6062259;29;20048;-91
2021/12/04 13:17:31;;;;;;;4.32;3.72;;;;;;;4.32;100.00;98690.81;6054418;29;20080;-91
2021/12/04 13:20:33;;;;;;;5.25;4.28;;;;;;;4.29;100.00;98673.97;6063875;29;20051;-91
2021/12/04 13:23:37;;;;;;;5.10;4.15;;;;;;;4.26;100.00;98663.16;6064975;29;20131;-91
2021/12/04 13:26:50;;;;;;;4.60;3.85;;;;;;;4.31;100.00;98656.72;6063285;29;20053;-91
2021/12/04 13:29:59;;;;;;;4.65;3.88;;;;;;;4.25;100.00;98657.25;6069861;29;20040;-91
2021/12/04 13:33:09;;;;;;;5.50;4.10;;;;;;;4.18;100.00;98642.53;6061498;29;20045;-91
2021/12/04 13:36:23;;;;;;;4.60;3.83;;;;;;;4.16;100.00;98626.47;6069652;29;20045;-91
2021/12/04 13:39:25;;;;;;;3.63;3.25;;;;;;;4.09;100.00;98624.41;6058547;29;20057;-91
2021/12/04 13:42:33;;;;;;;5.28;4.40;;;;;;;4.10;100.00;98620.13;6062736;29;20055;-91
2021/12/04 13:46:00;;;;;;;5.43;3.70;;;;;;;4.07;100.00;98613.50;6064672;29;20056;-91
2021/12/04 13:49:04;;;;;;;5.68;4.20;;;;;;;4.03;100.00;98619.00;6061459;29;20117;-91
2021/12/04 13:52:10;;;;;;;4.65;3.40;;;;;;;4.04;100.00;98620.59;6050654;29;20045;-91
2021/12/04 13:55:14;;;;;;;4.45;3.53;;;;;;;3.99;100.00;98622.75;6056254;29;20506;-91
2021/12/04 13:58:16;;;;;;;4.03;3.53;;;;;;;3.94;100.00;98620.56;6067084;29;20056;-91
2021/12/04 14:01:20;;;;;;;3.88;3.17;;;;;;;3.99;100.00;98625.28;6071031;29;20044;-91
2021/12/04 14:04:23;;;;;;;4.75;3.58;;;;;;;3.92;100.00;98639.53;6069916;29;20055;-91
2021/12/04 14:07:27;;;;;;;4.10;3.53;;;;;;;3.87;100.00;98632.22;6076758;29;20052;-91
2021/12/04 14:10:46;;;;;;;7.35;3.55;;;;;;;3.83;100.00;98620.63;6060348;29;20041;-91
2021/12/04 14:13:48;;;;;;;4.20;3.15;;;;;;;3.77;100.00;98606.56;6067289;29;20052;-91
2021/12/04 14:16:52;;;;;;;4.20;3.28;;;;;;;3.74;100.00;98621.38;6055143;29;20069;-91
2021/12/04 14:19:54;;;;;;;4.65;3.42;;;;;;;3.69;100.00;98629.41;6063372;29;20127;-91
2021/12/04 14:23:11;;;;;;;7.43;5.07;;;;;;;3.59;100.00;98623.44;6071232;29;20052;-91
2021/12/04 14:26:19;;;;;;;6.82;5.07;;;;;;;3.60;100.00;98615.63;6065381;29;20052;-91
2021/12/04 14:29:54;;;;;;;6.30;4.93;;;;;;;3.55;100.00;98617.75;6058596;29;20513;-91
2021/12/04 14:32:57;;;;;;;6.78;4.72;;;;;;;3.49;100.00;98612.31;6065205;29;20057;-91
2021/12/04 14:36:02;;;;;;;5.88;4.00;;;;;;;3.52;100.00;98607.75;6065592;29;20052;-91
2021/12/04 14:39:04;;;;;;;5.38;4.30;;;;;;;3.45;100.00;98606.63;6063082;29;20057;-91
2021/12/04 14:42:17;;;;;;;4.78;3.97;;;;;;;3.41;100.00;98612.94;6066181;29;20049;-91
2021/12/04 14:45:23;;;;;;;5.03;4.20;;;;;;;3.34;100.00;98610.06;6053282;29;20049;-91
2021/12/04 14:48:36;;;;;;;4.50;3.87;;;;;;;3.30;100.00;98602.75;6057609;29;20053;-91
2021/12/04 14:51:40;;;;;;;4.93;3.40;;;;;;;3.38;100.00;98620.84;6067213;29;20379;-91
2021/12/04 14:54:42;;;;;;;4.18;3.42;;;;;;;3.39;100.00;98614.81;6061978;29;20045;-91
2021/12/04 14:57:51;;;;;;;4.78;3.50;;;;;;;3.34;100.00;98611.81;6045067;29;20354;-91
2021/12/04 15:00:59;;;;;;;4.72;3.22;;;;;;;3.24;100.00;98602.31;6057605;29;20059;-91
2021/12/04 15:04:04;;;;;;;5.03;3.70;;;;;;;3.19;100.00;98604.41;6058882;29;20774;-91
2021/12/04 15:07:16;;;;;;;4.47;3.60;;;;;;;3.18;100.00;98596.84;6066484;29;20060;-91
2021/12/04 15:10:18;;;;;;;3.60;3.03;;;;;;;3.20;100.00;98597.53;6057581;29;20037;-91
2021/12/04 15:13:23;;;;;;;3.70;3.08;;;;;;;3.11;100.00;98600.84;6058597;29;20539;-91
2021/12/04 15:16:39;;;;;;;3.28;2.97;;;;;;;3.12;100.00;98602.47;6062685;29;20049;-91
2021/12/04 15:19:44;;;;;;;5.00;3.30;;;;;;;3.05;100.00;98611.53;6056242;29;20537;-91
2021/12/04 15:22:49;;;;;;;3.75;2.92;;;;;;;2.99;100.00;98607.75;6053155;29;20916;-91
2021/12/04 15:25:55;;;;;;;3.78;3.38;;;;;;;2.96;100.00;98613.09;6074600;29;20060;-91
2021/12/04 15:28:57;;;;;;;4.47;3.75;;;;;;;2.91;100.00;98613.44;6064152;29;20052;-91
2021/12/04 15:32:07;;;;;;;5.60;3.65;;;;;;;2.98;100.00;98617.16;6057992;29;20407;-91
2021/12/04 15:35:40;;;;;;;5.68;3.83;;;;;;;3.00;100.00;98617.81;6053728;29;20095;-91
2021/12/04 15:38:49;;;;;;;4.45;4.05;;;;;;;2.93;100.00;98621.81;6070702;29;20048;-91
2021/12/04 15:42:09;;;;;;;5.32;4.18;;;;;;;2.90;100.00;98623.78;6068076;29;20494;-91
2021/12/04 15:54:38;;;;;;;5.47;4.43;;;;;;;2.99;100.00;98617.97;6063236;29;20461;-91
2021/12/04 15:58:20;;;;;;;7.03;4.88;;;;;;;2.95;100.00;98608.91;6040711;29;20079;-91
2021/12/04 16:01:27;;;;;;;5.43;4.25;;;;;;;2.95;100.00;98611.47;6059059;29;20045;-91
2021/12/04 16:04:33;;;;;;;6.40;4.78;;;;;;;2.97;100.00;98607.03;6066078;29;20056;-91
2021/12/04 16:07:36;;;;;;;7.47;4.45;;;;;;;3.02;100.00;98604.94;6076965;29;20092;-91
2021/12/04 16:10:42;;;;;;;5.28;4.35;;;;;;;3.08;100.00;98595.97;6058405;29;20541;-91
2021/12/04 16:13:53;;;;;;;6.38;4.78;;;;;;;3.02;100.00;98587.84;6068953;29;20048;-91
2021/12/04 16:16:54;;;;;;;6.55;4.55;;;;;;;2.99;100.00;98580.44;6075110;29;20049;-91
2021/12/04 16:20:12;;;;;;;7.32;5.00;;;;;;;3.03;100.00;98580.97;6064172;29;20078;-91
2021/12/04 16:23:16;;;;;;;5.03;4.22;;;;;;;3.09;100.00;98580.53;6066170;29;20453;-91
2021/12/04 16:26:23;;;;;;;7.65;5.10;;;;;;;2.99;100.00;98584.75;6059111;29;20099;-91
2021/12/04 16:29:26;;;;;;;6.20;5.10;;;;;;;3.00;100.00;98581.22;6063770;29;20041;-91
2021/12/04 16:32:41;;;;;;;5.65;4.68;;;;;;;2.96;100.00;98584.97;6060612;29;20052;-90
2021/12/04 16:35:55;;;;;;;6.88;4.88;;;;;;;2.97;100.00;98584.03;6059363;29;20049;-91
2021/12/04 16:39:00;;;;;;;6.15;4.90;;;;;;;3.00;100.00;98589.72;6063978;29;20048;-91
2021/12/04 16:42:03;;;;;;;4.75;4.20;;;;;;;3.00;100.00;98596.56;6057188;29;20047;-91
2021/12/04 16:45:08;;;;;;;3.75;3.30;;;;;;;2.93;100.00;98585.19;6054838;29;20173;-91
2021/12/04 16:48:14;;;;;;;5.55;4.10;;;;;;;2.86;100.00;98581.50;6066655;29;20045;-90
2021/12/04 17:01:01;;;;;;;6.45;4.13;;;;;;;2.72;100.00;98582.59;6059092;29;19927;-91
2021/12/04 17:04:05;;;;;;;6.10;4.32;;;;;;;2.62;100.00;98581.69;6054480;29;20074;-91
2021/12/04 17:07:07;;;;;;;7.07;5.07;;;;;;;2.56;100.00;98585.53;6065157;29;20056;-91
2021/12/04 17:10:12;;;;;;;6.00;4.80;;;;;;;2.54;100.00;98579.72;6071686;29;20072;-91
2021/12/04 17:13:14;;;;;;;5.97;4.68;;;;;;;2.50;100.00;98575.78;6068137;29;20052;-92
2021/12/04 17:16:23;;;;;;;8.75;5.25;;;;;;;2.48;100.00;98581.00;6067910;29;20040;-91
2021/12/04 17:19:26;;;;;;;6.57;5.03;;;;;;;2.55;100.00;98578.78;6068609;29;20085;-91
2021/12/04 17:22:29;;;;;;;8.05;6.00;;;;;;;2.48;100.00;98577.63;6053887;29;20088;-91
2021/12/04 17:25:33;;;;;;;6.43;4.40;;;;;;;2.46;100.00;98587.16;6064040;29;20045;-90
2021/12/04 17:28:42;;;;;;;6.32;4.35;;;;;;;2.46;100.00;98589.72;6057504;29;20131;-89
2021/12/04 17:31:45;;;;;;;9.52;5.10;;;;;;;2.35;100.00;98588.78;6057311;29;20488;-89
2021/12/04 17:34:50;;;;;;;5.90;4.55;;;;;;;2.26;100.00;98586.97;6058245;29;20045;-89
2021/12/04 17:37:54;;;;;;;6.72;4.97;;;;;;;2.22;100.00;98582.19;6057032;29;20049;-89
2021/12/04 17:40:56;;;;;;;5.10;4.00;;;;;;;2.12;100.00;98590.53;6050072;29;20049;-89
2021/12/04 17:43:59;;;;;;;6.75;4.80;;;;;;;2.13;100.00;98583.69;6056055;29;20045;-88
2021/12/04 17:47:02;;;;;;;5.45;4.55;;;;;;;2.07;100.00;98586.72;6063955;29;20049;-89
2021/12/04 17:50:24;;;;;;;6.07;4.85;;;;;;;2.11;100.00;98578.72;6062427;29;20049;-89
2021/12/04 17:53:26;;;;;;;4.82;4.20;;;;;;;2.13;100.00;98586.25;6067070;29;20532;-89
2021/12/04 17:56:30;;;;;;;5.93;4.28;;;;;;;2.13;100.00;98591.34;6071135;29;20462;-89
2021/12/04 17:59:47;;;;;;;6.72;4.38;;;;;;;1.97;100.00;98590.88;6061630;29;20497;-90
2021/12/04 18:02:53;;;;;;;7.57;4.13;;;;;;;1.90;100.00;98593.06;6061696;29;20052;-90
2021/12/04 18:06:00;;;;;;;6.63;4.53;;;;;;;1.90;100.00;98593.06;6062284;29;20052;-90
2021/12/04 18:09:05;;;;;;;7.93;4.43;;;;;;;1.87;100.00;98601.75;6062941;29;20635;-90